createdAt,value
2022-10-17T00:01:05.308Z,14.38
2022-10-17T00:03:34.838Z,14.20
2022-10-17T00:06:09.152Z,14.00
2022-10-17T00:08:38.641Z,14.27
2022-10-17T00:11:13.929Z,15.02
2022-10-17T00:13:41.291Z,14.95
2022-10-17T00:16:08.971Z,15.27
2022-10-17T00:18:36.399Z,23.88
2022-10-17T00:21:04.264Z,14.77
2022-10-17T00:23:31.586Z,13.57
2022-10-17T00:26:01.332Z,13.35
2022-10-17T00:28:28.804Z,13.65
2022-10-17T00:30:59.217Z,13.38
2022-10-17T00:33:28.667Z,13.40
2022-10-17T00:36:16.031Z,14.27
2022-10-17T00:38:46.205Z,12.52
2022-10-17T00:41:18.888Z,12.55
2022-10-17T00:43:53.609Z,13.52
2022-10-17T00:46:22.958Z,12.65
2022-10-17T00:48:53.849Z,13.18
2022-10-17T00:51:33.013Z,13.82
2022-10-17T00:54:02.876Z,14.68
2022-10-17T00:56:32.282Z,14.80
2022-10-17T00:59:00.885Z,13.82
2022-10-17T01:01:28.453Z,14.07
2022-10-17T01:03:58.157Z,14.30
2022-10-17T01:06:26.412Z,15.60
2022-10-17T01:08:54.810Z,13.85
2022-10-17T01:11:34.811Z,12.55
2022-10-17T01:14:21.854Z,13.20
2022-10-17T01:17:16.935Z,12.00
2022-10-17T01:20:37.349Z,12.93
2022-10-17T01:23:16.520Z,14.05
2022-10-17T01:26:22.593Z,12.02
2022-10-17T01:28:52.976Z,12.32
2022-10-17T01:31:27.726Z,12.82
2022-10-17T01:34:01.014Z,14.18
2022-10-17T01:36:36.889Z,14.52
2022-10-17T01:39:51.980Z,12.50
2022-10-17T01:42:37.816Z,13.63
2022-10-17T01:45:43.172Z,13.65
2022-10-17T01:48:21.795Z,13.23
2022-10-17T01:51:08.910Z,13.45
2022-10-17T01:53:50.555Z,13.85
2022-10-17T01:56:22.884Z,14.50
2022-10-17T01:59:01.195Z,14.27
2022-10-17T02:04:01.226Z,14.80
2022-10-17T02:06:28.499Z,15.40
2022-10-17T02:08:55.763Z,13.98
2022-10-17T02:11:26.690Z,13.45
2022-10-17T02:14:27.449Z,14.40
2022-10-17T02:17:06.785Z,13.38
2022-10-17T02:20:15.925Z,12.82
2022-10-17T02:23:03.576Z,12.38
2022-10-17T02:25:50.249Z,12.52
2022-10-17T02:28:30.554Z,13.70
2022-10-17T02:31:17.837Z,13.70
2022-10-17T02:34:51.859Z,13.20
2022-10-17T02:37:25.547Z,12.75
2022-10-17T02:39:59.334Z,12.52
2022-10-17T02:42:29.540Z,12.82
2022-10-17T02:45:02.557Z,13.80
2022-10-17T02:47:43.282Z,14.53
2022-10-17T02:50:11.423Z,14.83
2022-10-17T02:53:08.624Z,14.40
2022-10-17T02:55:56.880Z,14.43
2022-10-17T02:58:35.733Z,15.10
2022-10-17T03:01:06.117Z,14.98
2022-10-17T03:03:33.630Z,14.43
2022-10-17T03:06:01.162Z,14.90
2022-10-17T03:08:28.678Z,14.40
2022-10-17T03:10:55.976Z,14.30
2022-10-17T03:13:23.323Z,13.55
2022-10-17T03:15:50.606Z,13.73
2022-10-17T03:18:21.000Z,14.40
2022-10-17T03:20:48.180Z,14.07
2022-10-17T03:23:16.849Z,13.75
2022-10-17T03:25:44.109Z,13.98
2022-10-17T03:28:12.478Z,15.83
2022-10-17T03:30:39.710Z,14.80
2022-10-17T03:33:07.029Z,14.50
2022-10-17T03:35:34.384Z,13.95
2022-10-17T03:38:01.606Z,13.93
2022-10-17T03:40:28.891Z,14.03
2022-10-17T03:42:56.124Z,13.27
2022-10-17T03:45:23.384Z,13.43
2022-10-17T03:47:50.760Z,14.20
2022-10-17T03:50:18.027Z,13.73
2022-10-17T03:52:49.727Z,13.23
2022-10-17T03:55:17.756Z,12.98
2022-10-17T03:57:45.692Z,13.95
2022-10-17T04:00:13.807Z,13.07
2022-10-17T04:02:41.560Z,13.57
2022-10-17T04:05:09.131Z,13.77
2022-10-17T04:07:37.712Z,14.15
2022-10-17T04:10:06.090Z,14.43
2022-10-17T04:12:33.633Z,15.00
2022-10-17T04:15:01.126Z,14.33
2022-10-17T04:17:35.795Z,14.98
2022-10-17T04:20:05.908Z,15.43
2022-10-17T04:22:33.161Z,15.40
2022-10-17T04:25:00.504Z,14.48
2022-10-17T04:27:29.436Z,14.02
2022-10-17T04:29:56.819Z,14.85
2022-10-17T04:32:26.559Z,14.48
2022-10-17T04:34:54.712Z,14.15
2022-10-17T04:37:22.205Z,13.57
2022-10-17T04:39:49.624Z,12.63
2022-10-17T04:42:16.988Z,14.15
2022-10-17T04:44:44.328Z,14.03
2022-10-17T04:47:11.507Z,14.23
2022-10-17T04:49:38.841Z,14.53
2022-10-17T04:52:06.789Z,16.23
2022-10-17T04:54:34.063Z,15.77
2022-10-17T04:57:02.688Z,16.40
2022-10-17T04:59:30.207Z,16.10
2022-10-17T05:02:04.858Z,14.55
2022-10-17T05:04:33.679Z,14.82
2022-10-17T05:07:01.132Z,15.40
2022-10-17T05:09:28.737Z,15.35
2022-10-17T05:11:56.196Z,15.75
2022-10-17T05:14:26.521Z,15.93
2022-10-17T05:16:53.851Z,15.82
2022-10-17T05:19:21.130Z,14.48
2022-10-17T05:21:48.536Z,15.25
2022-10-17T05:24:16.571Z,14.82
2022-10-17T05:26:43.996Z,13.48
2022-10-17T05:29:11.560Z,13.85
2022-10-17T05:31:38.916Z,15.95
2022-10-17T05:34:08.985Z,14.90
2022-10-17T05:36:38.776Z,14.73
2022-10-17T05:39:06.884Z,14.18
2022-10-17T05:41:34.592Z,14.90
2022-10-17T05:44:05.385Z,14.82
2022-10-17T05:46:37.337Z,14.70
2022-10-17T05:50:02.995Z,14.88
2022-10-17T05:52:33.439Z,13.88
2022-10-17T05:55:09.246Z,14.20
2022-10-17T05:57:41.330Z,12.80
2022-10-17T06:00:22.158Z,13.80
2022-10-17T06:03:01.318Z,14.10
2022-10-17T06:05:28.767Z,13.38
2022-10-17T06:07:59.604Z,14.32
2022-10-17T06:10:40.309Z,13.75
2022-10-17T06:13:07.631Z,15.27
2022-10-17T06:15:34.964Z,14.57
2022-10-17T06:18:02.351Z,13.43
2022-10-17T06:20:32.363Z,14.63
2022-10-17T06:22:59.756Z,14.57
2022-10-17T06:25:27.283Z,13.70
2022-10-17T06:27:54.543Z,14.55
2022-10-17T06:30:24.217Z,13.60
2022-10-17T06:32:54.022Z,13.53
2022-10-17T06:35:21.695Z,13.57
2022-10-17T06:37:49.003Z,13.82
2022-10-17T06:40:17.738Z,13.43
2022-10-17T06:42:45.213Z,13.68
2022-10-17T06:45:12.689Z,12.55
2022-10-17T06:47:40.416Z,11.38
2022-10-17T06:50:08.243Z,11.20
2022-10-17T06:52:35.539Z,11.30
2022-10-17T06:55:05.818Z,10.63
2022-10-17T06:57:33.249Z,10.52
2022-10-17T07:00:00.570Z,10.02
2022-10-17T07:02:34.061Z,10.13
2022-10-17T07:05:16.593Z,9.80
2022-10-17T07:07:49.600Z,10.13
2022-10-17T07:10:23.266Z,10.27
2022-10-17T07:12:52.740Z,10.75
2022-10-17T07:15:25.487Z,10.60
2022-10-17T07:18:01.522Z,11.30
2022-10-17T07:20:29.314Z,11.45
2022-10-17T07:22:57.155Z,10.90
2022-10-17T07:25:25.154Z,10.20
2022-10-17T07:27:55.747Z,10.40
2022-10-17T07:30:24.164Z,11.60
2022-10-17T07:33:11.980Z,11.05
2022-10-17T07:38:28.449Z,10.75
2022-10-17T07:41:37.468Z,11.05
2022-10-17T07:44:07.936Z,11.55
2022-10-17T07:46:35.358Z,10.25
2022-10-17T07:49:02.763Z,10.10
2022-10-17T07:51:30.179Z,11.32
2022-10-17T07:53:57.898Z,10.93
2022-10-17T07:56:27.487Z,10.85
2022-10-17T08:01:50.711Z,10.90
2022-10-17T08:04:18.404Z,10.82
2022-10-17T08:06:45.770Z,10.50
2022-10-17T08:09:13.396Z,10.68
2022-10-17T08:11:40.963Z,11.43
2022-10-17T08:14:08.261Z,10.40
2022-10-17T08:16:41.905Z,10.93
2022-10-17T08:19:13.118Z,11.67
2022-10-17T08:21:44.975Z,11.20
2022-10-17T08:28:26.082Z,10.60
2022-10-17T08:34:16.048Z,10.88
2022-10-17T08:43:03.752Z,11.70
2022-10-17T08:45:54.480Z,11.27
2022-10-17T08:49:11.990Z,10.90
2022-10-17T08:52:39.375Z,11.00
2022-10-17T08:55:50.570Z,10.95
2022-10-17T08:58:31.438Z,10.73
2022-10-17T09:01:24.105Z,10.93
2022-10-17T09:04:38.008Z,10.75
2022-10-17T09:07:10.330Z,10.20
2022-10-17T09:10:17.194Z,10.32
2022-10-17T09:13:23.006Z,10.57
2022-10-17T09:16:44.436Z,9.48
2022-10-17T09:20:06.120Z,9.82
2022-10-17T09:23:09.476Z,9.63
2022-10-17T09:26:13.481Z,9.68
2022-10-17T09:29:05.103Z,10.55
2022-10-17T09:32:11.459Z,10.80
2022-10-17T09:34:45.006Z,10.38
2022-10-17T09:37:16.544Z,9.38
2022-10-17T09:39:47.304Z,9.02
2022-10-17T09:42:21.451Z,9.27
2022-10-17T09:45:27.130Z,9.43
2022-10-17T09:48:22.922Z,9.57
2022-10-17T09:50:57.928Z,9.55
2022-10-17T09:53:42.931Z,10.10
2022-10-17T09:56:19.237Z,9.73
2022-10-17T09:58:57.970Z,9.98
2022-10-17T10:01:31.603Z,9.25
2022-10-17T10:04:17.330Z,9.07
2022-10-17T10:07:34.612Z,9.15
2022-10-17T10:10:04.712Z,8.98
2022-10-17T10:12:39.948Z,8.45
2022-10-17T10:15:48.194Z,8.75
2022-10-17T10:21:54.280Z,8.47
2022-10-17T10:24:21.878Z,9.18
2022-10-17T10:26:57.053Z,8.98
2022-10-17T10:29:29.021Z,8.87
2022-10-17T10:35:38.016Z,8.63
2022-10-17T10:38:21.638Z,9.13
2022-10-17T10:40:58.288Z,8.30
2022-10-17T10:43:45.528Z,8.30
2022-10-17T10:46:21.867Z,9.07
2022-10-17T10:49:00.325Z,8.38
2022-10-17T10:51:41.389Z,8.50
2022-10-17T10:54:32.502Z,8.60
2022-10-17T10:57:21.031Z,8.82
2022-10-17T11:00:15.968Z,8.57
2022-10-17T11:03:01.740Z,8.60
2022-10-17T11:05:42.908Z,8.75
2022-10-17T11:08:25.747Z,8.13
2022-10-17T11:11:18.364Z,8.77
2022-10-17T11:14:17.828Z,8.33
2022-10-17T11:16:56.629Z,8.35
2022-10-17T11:20:20.935Z,8.80
2022-10-17T11:22:57.672Z,8.23
2022-10-17T11:25:39.281Z,9.03
2022-10-17T11:28:24.948Z,8.55
2022-10-17T11:31:09.704Z,9.05
2022-10-17T11:33:47.685Z,9.60
2022-10-17T11:36:21.675Z,8.50
2022-10-17T11:39:27.770Z,8.83
2022-10-17T11:42:07.259Z,9.13
2022-10-17T11:44:40.640Z,9.32
2022-10-17T11:47:31.066Z,10.55
2022-10-17T11:53:09.388Z,10.77
2022-10-17T11:55:38.545Z,10.98
2022-10-17T11:58:34.155Z,9.60
2022-10-17T12:01:20.282Z,9.55
2022-10-17T12:04:24.693Z,8.93
2022-10-17T12:07:44.194Z,10.60
2022-10-17T12:10:40.764Z,9.23
2022-10-17T12:13:36.849Z,8.88
2022-10-17T12:16:20.809Z,9.57
2022-10-17T12:19:10.959Z,8.75
2022-10-17T12:22:13.210Z,8.45
2022-10-17T12:24:44.296Z,9.30
2022-10-17T12:27:45.317Z,8.60
2022-10-17T12:30:12.622Z,8.13
2022-10-17T12:33:07.578Z,9.25
2022-10-17T12:35:38.185Z,8.10
2022-10-17T12:38:21.057Z,7.75
2022-10-17T12:40:55.425Z,8.02
2022-10-17T12:43:28.708Z,8.48
2022-10-17T12:46:01.772Z,7.72
2022-10-17T12:48:38.049Z,7.53
2022-10-17T12:51:35.309Z,7.57
2022-10-17T12:54:13.532Z,6.40
2022-10-17T12:56:49.027Z,6.82
2022-10-17T12:59:28.034Z,6.07
2022-10-17T13:02:01.416Z,6.20
2022-10-17T13:04:32.284Z,6.25
2022-10-17T13:07:01.400Z,5.97
2022-10-17T13:09:43.908Z,6.70
2022-10-17T13:12:41.197Z,6.97
2022-10-17T13:15:17.376Z,5.63
2022-10-17T13:17:45.064Z,6.57
2022-10-17T13:20:28.973Z,6.45
2022-10-17T13:23:00.349Z,6.30
2022-10-17T13:25:28.925Z,6.22
2022-10-17T13:28:13.561Z,7.05
2022-10-17T13:30:49.283Z,6.40
2022-10-17T13:33:35.819Z,7.68
2022-10-17T13:36:08.307Z,6.65
2022-10-17T13:38:40.301Z,6.60
2022-10-17T13:41:34.701Z,6.47
2022-10-17T13:44:13.179Z,7.38
2022-10-17T13:46:42.727Z,6.60
2022-10-17T13:49:41.566Z,7.13
2022-10-17T13:52:25.125Z,6.18
2022-10-17T13:54:54.155Z,6.25
2022-10-17T13:57:30.496Z,6.20
2022-10-17T14:00:09.918Z,5.95
2022-10-17T14:02:42.024Z,6.30
2022-10-17T14:05:19.707Z,6.43
2022-10-17T14:08:19.149Z,6.82
2022-10-17T14:10:47.182Z,5.93
2022-10-17T14:13:33.869Z,6.28
2022-10-17T14:16:04.511Z,5.82
2022-10-17T14:18:37.573Z,6.30
2022-10-17T14:24:21.481Z,6.00
2022-10-17T14:26:53.120Z,5.97
2022-10-17T14:29:53.557Z,5.80
2022-10-17T14:32:22.665Z,5.83
2022-10-17T14:35:05.537Z,6.38
2022-10-17T14:37:47.794Z,6.22
2022-10-17T14:40:20.034Z,5.97
2022-10-17T14:42:50.490Z,6.05
2022-10-17T14:45:35.738Z,6.45
2022-10-17T14:48:17.333Z,5.93
2022-10-17T14:51:16.830Z,6.38
2022-10-17T14:54:05.029Z,6.00
2022-10-17T14:56:41.951Z,5.90
2022-10-17T14:59:18.246Z,6.25
2022-10-17T15:01:52.810Z,6.68
2022-10-17T15:04:20.064Z,6.00
2022-10-17T15:06:55.548Z,5.78
2022-10-17T15:09:23.938Z,6.32
2022-10-17T15:14:18.713Z,6.93
2022-10-17T15:16:45.999Z,6.75
2022-10-17T15:19:14.553Z,6.47
2022-10-17T15:21:46.178Z,6.45
2022-10-17T15:24:15.849Z,6.47
2022-10-17T15:26:43.262Z,7.13
2022-10-17T15:29:16.114Z,6.95
2022-10-17T15:31:43.384Z,6.20
2022-10-17T15:34:11.726Z,6.40
2022-10-17T15:36:49.750Z,6.20
2022-10-17T15:39:17.095Z,6.10
2022-10-17T15:41:44.457Z,6.60
2022-10-17T15:44:11.721Z,6.80
2022-10-17T15:46:41.589Z,7.53
2022-10-17T15:49:15.241Z,6.68
2022-10-17T15:51:42.790Z,6.72
2022-10-17T15:54:10.173Z,8.20
2022-10-17T15:56:51.997Z,9.30
2022-10-17T15:59:30.719Z,8.25
2022-10-17T16:01:58.016Z,8.25
2022-10-17T16:04:27.381Z,8.10
2022-10-17T16:06:54.658Z,8.73
2022-10-17T16:09:21.926Z,10.20
2022-10-17T16:11:50.530Z,7.70
2022-10-17T16:14:18.603Z,6.70
2022-10-17T16:16:47.535Z,6.88
2022-10-17T16:19:14.858Z,7.88
2022-10-17T16:21:42.775Z,7.70
2022-10-17T16:24:12.341Z,8.25
2022-10-17T16:26:42.554Z,8.02
2022-10-17T16:29:10.255Z,7.35
2022-10-17T16:31:43.587Z,8.07
2022-10-17T16:34:13.832Z,12.00
2022-10-17T16:36:45.485Z,9.98
2022-10-17T16:39:12.880Z,13.20
2022-10-17T16:41:41.391Z,17.70
2022-10-17T16:44:14.615Z,22.33
2022-10-17T16:46:42.083Z,8.15
2022-10-17T16:49:10.497Z,7.20
2022-10-17T16:51:37.757Z,8.13
2022-10-17T16:54:05.115Z,8.45
2022-10-17T16:56:33.185Z,8.75
2022-10-17T16:59:02.234Z,8.70
2022-10-17T17:01:29.907Z,7.90
2022-10-17T17:03:57.531Z,8.07
2022-10-17T17:06:29.739Z,7.87
2022-10-17T17:08:58.042Z,8.95
2022-10-17T17:11:27.773Z,8.52
2022-10-17T17:14:01.558Z,8.07
2022-10-17T17:16:31.104Z,8.57
2022-10-17T17:19:08.590Z,8.02
2022-10-17T17:21:36.991Z,7.50
2022-10-17T17:24:05.493Z,6.68
2022-10-17T17:29:09.640Z,6.45
2022-10-17T17:31:39.045Z,9.15
